sensor_id;sensor_type;location;lat;lon;timestamp;P1;durP1;ratioP1;P2;durP2;ratioP2
16916;SDS011;8575;52.418;13.492;2022-11-20T00:00:08;719.28;;;660.20;;
16916;SDS011;8575;52.418;13.492;2022-11-20T00:00:30;709.92;;;651.13;;
16916;SDS011;8575;52.418;13.492;2022-11-20T00:00:52;687.58;;;629.30;;
16916;SDS011;8575;52.418;13.492;2022-11-20T00:01:14;677.20;;;619.22;;
16916;SDS011;8575;52.418;13.492;2022-11-20T00:01:37;688.42;;;630.20;;
16916;SDS011;8575;52.418;13.492;2022-11-20T00:01:58;669.63;;;611.92;;
16916;SDS011;8575;52.418;13.492;2022-11-20T00:02:20;708.67;;;649.97;;
16916;SDS011;8575;52.418;13.492;2022-11-20T00:02:41;699.38;;;640.92;;
16916;SDS011;8575;52.418;13.492;2022-11-20T00:03:02;698.47;;;640.00;;
16916;SDS011;8575;52.418;13.492;2022-11-20T00:03:24;686.72;;;628.50;;
16916;SDS011;8575;52.418;13.492;2022-11-20T00:03:46;695.67;;;637.13;;
16916;SDS011;8575;52.418;13.492;2022-11-20T00:04:08;689.13;;;630.80;;
16916;SDS011;8575;52.418;13.492;2022-11-20T00:04:32;704.67;;;645.92;;
16916;SDS011;8575;52.418;13.492;2022-11-20T00:04:53;697.88;;;639.30;;
16916;SDS011;8575;52.418;13.492;2022-11-20T00:05:14;699.78;;;641.10;;
16916;SDS011;8575;52.418;13.492;2022-11-20T00:05:36;705.20;;;646.53;;
16916;SDS011;8575;52.418;13.492;2022-11-20T00:05:59;704.33;;;645.60;;
16916;SDS011;8575;52.418;13.492;2022-11-20T00:06:21;693.88;;;635.45;;
16916;SDS011;8575;52.418;13.492;2022-11-20T00:06:43;721.60;;;662.45;;
16916;SDS011;8575;52.418;13.492;2022-11-20T00:07:05;717.97;;;658.97;;
16916;SDS011;8575;52.418;13.492;2022-11-20T00:07:26;709.83;;;650.92;;
16916;SDS011;8575;52.418;13.492;2022-11-20T00:07:48;709.80;;;650.90;;
16916;SDS011;8575;52.418;13.492;2022-11-20T00:08:09;700.15;;;641.70;;
16916;SDS011;8575;52.418;13.492;2022-11-20T00:08:32;727.95;;;668.90;;
16916;SDS011;8575;52.418;13.492;2022-11-20T00:08:56;707.55;;;648.85;;
16916;SDS011;8575;52.418;13.492;2022-11-20T00:09:20;708.63;;;649.92;;
16916;SDS011;8575;52.418;13.492;2022-11-20T00:09:42;730.53;;;671.13;;
16916;SDS011;8575;52.418;13.492;2022-11-20T00:10:04;699.22;;;640.67;;
16916;SDS011;8575;52.418;13.492;2022-11-20T00:10:26;699.72;;;641.22;;
16916;SDS011;8575;52.418;13.492;2022-11-20T00:10:48;696.63;;;638.03;;
16916;SDS011;8575;52.418;13.492;2022-11-20T00:11:10;722.33;;;663.22;;
16916;SDS011;8575;52.418;13.492;2022-11-20T00:11:33;719.30;;;660.13;;
16916;SDS011;8575;52.418;13.492;2022-11-20T00:11:54;707.53;;;648.72;;
16916;SDS011;8575;52.418;13.492;2022-11-20T00:12:16;686.83;;;628.65;;
16916;SDS011;8575;52.418;13.492;2022-11-20T00:12:38;680.38;;;622.33;;
16916;SDS011;8575;52.418;13.492;2022-11-20T00:13:00;697.85;;;639.25;;
16916;SDS011;8575;52.418;13.492;2022-11-20T00:13:21;693.60;;;635.30;;
16916;SDS011;8575;52.418;13.492;2022-11-20T00:13:43;674.20;;;616.28;;
16916;SDS011;8575;52.418;13.492;2022-11-20T00:14:04;671.28;;;613.47;;
16916;SDS011;8575;52.418;13.492;2022-11-20T00:14:27;682.60;;;624.40;;
16916;SDS011;8575;52.418;13.492;2022-11-20T00:14:48;709.53;;;650.55;;
16916;SDS011;8575;52.418;13.492;2022-11-20T00:15:09;704.83;;;645.95;;
16916;SDS011;8575;52.418;13.492;2022-11-20T00:15:31;685.45;;;627.30;;
16916;SDS011;8575;52.418;13.492;2022-11-20T00:15:56;702.53;;;643.78;;
16916;SDS011;8575;52.418;13.492;2022-11-20T00:16:20;719.33;;;660.25;;
16916;SDS011;8575;52.418;13.492;2022-11-20T00:16:43;716.15;;;657.13;;
16916;SDS011;8575;52.418;13.492;2022-11-20T00:17:04;709.92;;;650.92;;
16916;SDS011;8575;52.418;13.492;2022-11-20T00:17:25;704.72;;;645.95;;
16916;SDS011;8575;52.418;13.492;2022-11-20T00:17:48;704.70;;;645.95;;
16916;SDS011;8575;52.418;13.492;2022-11-20T00:18:09;708.08;;;649.22;;
16916;SDS011;8575;52.418;13.492;2022-11-20T00:18:30;692.83;;;634.53;;
16916;SDS011;8575;52.418;13.492;2022-11-20T00:18:53;669.65;;;611.83;;
16916;SDS011;8575;52.418;13.492;2022-11-20T00:19:16;672.53;;;614.72;;
16916;SDS011;8575;52.418;13.492;2022-11-20T00:19:37;682.40;;;624.47;;
16916;SDS011;8575;52.418;13.492;2022-11-20T00:19:59;684.75;;;626.60;;
16916;SDS011;8575;52.418;13.492;2022-11-20T00:20:20;682.83;;;624.67;;
16916;SDS011;8575;52.418;13.492;2022-11-20T00:20:42;685.58;;;627.33;;
16916;SDS011;8575;52.418;13.492;2022-11-20T00:21:04;670.72;;;612.83;;
16916;SDS011;8575;52.418;13.492;2022-11-20T00:21:28;674.45;;;616.53;;
16916;SDS011;8575;52.418;13.492;2022-11-20T00:21:49;692.28;;;633.95;;
16916;SDS011;8575;52.418;13.492;2022-11-20T00:22:14;680.90;;;622.78;;
16916;SDS011;8575;52.418;13.492;2022-11-20T00:22:38;668.83;;;611.05;;
16916;SDS011;8575;52.418;13.492;2022-11-20T00:23:00;690.63;;;632.13;;
16916;SDS011;8575;52.418;13.492;2022-11-20T00:23:21;699.67;;;641.13;;
16916;SDS011;8575;52.418;13.492;2022-11-20T00:23:44;692.75;;;634.35;;
16916;SDS011;8575;52.418;13.492;2022-11-20T00:24:07;665.30;;;607.53;;
16916;SDS011;8575;52.418;13.492;2022-11-20T00:24:32;659.67;;;602.17;;
16916;SDS011;8575;52.418;13.492;2022-11-20T00:24:54;655.58;;;598.15;;
16916;SDS011;8575;52.418;13.492;2022-11-20T00:25:16;659.65;;;602.05;;
16916;SDS011;8575;52.418;13.492;2022-11-20T00:25:37;678.20;;;620.25;;
16916;SDS011;8575;52.418;13.492;2022-11-20T00:26:01;686.05;;;627.85;;
16916;SDS011;8575;52.418;13.492;2022-11-20T00:26:25;673.47;;;615.63;;
16916;SDS011;8575;52.418;13.492;2022-11-20T00:26:47;664.17;;;606.47;;
16916;SDS011;8575;52.418;13.492;2022-11-20T00:27:08;676.97;;;619.08;;
16916;SDS011;8575;52.418;13.492;2022-11-20T00:27:30;672.40;;;614.53;;
16916;SDS011;8575;52.418;13.492;2022-11-20T00:27:52;682.17;;;624.03;;
16916;SDS011;8575;52.418;13.492;2022-11-20T00:28:14;685.72;;;627.53;;
16916;SDS011;8575;52.418;13.492;2022-11-20T00:28:36;680.47;;;622.38;;
16916;SDS011;8575;52.418;13.492;2022-11-20T00:28:58;685.05;;;626.72;;
16916;SDS011;8575;52.418;13.492;2022-11-20T00:29:21;679.47;;;621.50;;
16916;SDS011;8575;52.418;13.492;2022-11-20T00:29:42;695.63;;;637.22;;
16916;SDS011;8575;52.418;13.492;2022-11-20T00:30:04;684.60;;;626.58;;
16916;SDS011;8575;52.418;13.492;2022-11-20T00:30:26;672.78;;;615.08;;
16916;SDS011;8575;52.418;13.492;2022-11-20T00:30:49;665.63;;;607.95;;
16916;SDS011;8575;52.418;13.492;2022-11-20T00:31:11;664.60;;;607.00;;
16916;SDS011;8575;52.418;13.492;2022-11-20T00:31:34;657.60;;;600.20;;
16916;SDS011;8575;52.418;13.492;2022-11-20T00:31:57;663.85;;;606.22;;
16916;SDS011;8575;52.418;13.492;2022-11-20T00:32:19;672.03;;;614.22;;
16916;SDS011;8575;52.418;13.492;2022-11-20T00:32:41;647.40;;;590.15;;
16916;SDS011;8575;52.418;13.492;2022-11-20T00:33:02;668.30;;;610.70;;
16916;SDS011;8575;52.418;13.492;2022-11-20T00:33:23;681.70;;;623.72;;
16916;SDS011;8575;52.418;13.492;2022-11-20T00:33:44;668.03;;;610.33;;
16916;SDS011;8575;52.418;13.492;2022-11-20T00:34:07;667.17;;;609.33;;
16916;SDS011;8575;52.418;13.492;2022-11-20T00:34:32;662.75;;;605.10;;
16916;SDS011;8575;52.418;13.492;2022-11-20T00:34:54;674.78;;;616.83;;
16916;SDS011;8575;52.418;13.492;2022-11-20T00:35:15;691.40;;;633.08;;
16916;SDS011;8575;52.418;13.492;2022-11-20T00:35:38;690.97;;;632.88;;
16916;SDS011;8575;52.418;13.492;2022-11-20T00:35:59;692.50;;;634.15;;
16916;SDS011;8575;52.418;13.492;2022-11-20T00:36:22;645.70;;;588.58;;
16916;SDS011;8575;52.418;13.492;2022-11-20T00:36:45;657.17;;;599.67;;
16916;SDS011;8575;52.418;13.492;2022-11-20T00:37:16;666.22;;;608.50;;
16916;SDS011;8575;52.418;13.492;2022-11-20T00:37:37;669.08;;;611.40;;
16916;SDS011;8575;52.418;13.492;2022-11-20T00:37:58;681.85;;;623.72;;
16916;SDS011;8575;52.418;13.492;2022-11-20T00:38:21;667.47;;;609.67;;
16916;SDS011;8575;52.418;13.492;2022-11-20T00:38:42;671.72;;;613.90;;
16916;SDS011;8575;52.418;13.492;2022-11-20T00:39:04;643.38;;;586.13;;
16916;SDS011;8575;52.418;13.492;2022-11-20T00:39:25;660.80;;;603.15;;
16916;SDS011;8575;52.418;13.492;2022-11-20T00:39:49;687.95;;;629.63;;
16916;SDS011;8575;52.418;13.492;2022-11-20T00:40:10;671.53;;;613.55;;
16916;SDS011;8575;52.418;13.492;2022-11-20T00:40:32;667.92;;;610.30;;
16916;SDS011;8575;52.418;13.492;2022-11-20T00:40:57;692.33;;;634.08;;
16916;SDS011;8575;52.418;13.492;2022-11-20T00:41:18;688.05;;;630.03;;
16916;SDS011;8575;52.418;13.492;2022-11-20T00:41:40;691.67;;;633.30;;
16916;SDS011;8575;52.418;13.492;2022-11-20T00:42:02;677.10;;;619.10;;
16916;SDS011;8575;52.418;13.492;2022-11-20T00:42:23;684.13;;;625.80;;
16916;SDS011;8575;52.418;13.492;2022-11-20T00:42:44;645.78;;;588.55;;
16916;SDS011;8575;52.418;13.492;2022-11-20T00:43:05;652.35;;;594.47;;
16916;SDS011;8575;52.418;13.492;2022-11-20T00:43:28;658.63;;;600.67;;
16916;SDS011;8575;52.418;13.492;2022-11-20T00:43:50;668.58;;;610.63;;
16916;SDS011;8575;52.418;13.492;2022-11-20T00:44:12;669.55;;;611.30;;
16916;SDS011;8575;52.418;13.492;2022-11-20T00:44:34;663.55;;;605.58;;
16916;SDS011;8575;52.418;13.492;2022-11-20T00:44:56;672.90;;;614.83;;
16916;SDS011;8575;52.418;13.492;2022-11-20T00:45:17;703.47;;;644.72;;
16916;SDS011;8575;52.418;13.492;2022-11-20T00:45:39;689.72;;;631.25;;
16916;SDS011;8575;52.418;13.492;2022-11-20T00:46:02;677.80;;;619.80;;
16916;SDS011;8575;52.418;13.492;2022-11-20T00:46:26;669.65;;;611.83;;
16916;SDS011;8575;52.418;13.492;2022-11-20T00:46:48;681.13;;;622.97;;
16916;SDS011;8575;52.418;13.492;2022-11-20T00:47:09;692.97;;;634.53;;
16916;SDS011;8575;52.418;13.492;2022-11-20T00:47:31;676.20;;;618.22;;
16916;SDS011;8575;52.418;13.492;2022-11-20T00:47:52;690.70;;;632.47;;
16916;SDS011;8575;52.418;13.492;2022-11-20T00:48:14;687.40;;;629.13;;
16916;SDS011;8575;52.418;13.492;2022-11-20T00:48:35;690.38;;;632.13;;
16916;SDS011;8575;52.418;13.492;2022-11-20T00:48:57;681.55;;;623.58;;
16916;SDS011;8575;52.418;13.492;2022-11-20T00:49:19;692.88;;;634.67;;
16916;SDS011;8575;52.418;13.492;2022-11-20T00:49:40;672.35;;;614.55;;
16916;SDS011;8575;52.418;13.492;2022-11-20T00:50:01;653.38;;;596.03;;
16916;SDS011;8575;52.418;13.492;2022-11-20T00:50:24;666.35;;;608.63;;
16916;SDS011;8575;52.418;13.492;2022-11-20T00:50:45;654.47;;;597.00;;
16916;SDS011;8575;52.418;13.492;2022-11-20T00:51:06;666.92;;;609.15;;
16916;SDS011;8575;52.418;13.492;2022-11-20T00:51:28;692.90;;;634.63;;
16916;SDS011;8575;52.418;13.492;2022-11-20T00:51:49;694.53;;;636.22;;
16916;SDS011;8575;52.418;13.492;2022-11-20T00:52:11;685.17;;;627.05;;
16916;SDS011;8575;52.418;13.492;2022-11-20T00:52:35;674.47;;;616.60;;
16916;SDS011;8575;52.418;13.492;2022-11-20T00:52:56;603.15;;;546.55;;
16916;SDS011;8575;52.418;13.492;2022-11-20T00:53:18;668.22;;;610.38;;
16916;SDS011;8575;52.418;13.492;2022-11-20T00:53:39;693.25;;;634.97;;
16916;SDS011;8575;52.418;13.492;2022-11-20T00:54:01;692.92;;;634.58;;
16916;SDS011;8575;52.418;13.492;2022-11-20T00:54:22;670.60;;;612.83;;
16916;SDS011;8575;52.418;13.492;2022-11-20T00:54:44;665.70;;;608.00;;
16916;SDS011;8575;52.418;13.492;2022-11-20T00:55:06;690.67;;;632.28;;
16916;SDS011;8575;52.418;13.492;2022-11-20T00:55:32;691.05;;;632.70;;
16916;SDS011;8575;52.418;13.492;2022-11-20T00:55:54;666.13;;;608.33;;
16916;SDS011;8575;52.418;13.492;2022-11-20T00:56:17;681.15;;;623.08;;
16916;SDS011;8575;52.418;13.492;2022-11-20T00:56:39;674.17;;;616.35;;
16916;SDS011;8575;52.418;13.492;2022-11-20T00:57:01;692.33;;;634.10;;
16916;SDS011;8575;52.418;13.492;2022-11-20T00:57:23;677.60;;;619.72;;
16916;SDS011;8575;52.418;13.492;2022-11-20T00:57:44;658.20;;;600.75;;
16916;SDS011;8575;52.418;13.492;2022-11-20T00:58:05;656.47;;;598.92;;
16916;SDS011;8575;52.418;13.492;2022-11-20T00:58:28;673.40;;;615.22;;
16916;SDS011;8575;52.418;13.492;2022-11-20T00:58:51;676.10;;;617.63;;
16916;SDS011;8575;52.418;13.492;2022-11-20T00:59:13;683.92;;;625.42;;
16916;SDS011;8575;52.418;13.492;2022-11-20T00:59:34;678.13;;;619.63;;
16916;SDS011;8575;52.418;13.492;2022-11-20T00:59:55;668.67;;;610.58;;
16916;SDS011;8575;52.418;13.492;2022-11-20T01:00:18;671.53;;;612.78;;
16916;SDS011;8575;52.418;13.492;2022-11-20T01:00:39;673.33;;;614.72;;
16916;SDS011;8575;52.418;13.492;2022-11-20T01:01:00;712.60;;;653.63;;
16916;SDS011;8575;52.418;13.492;2022-11-20T01:01:23;702.40;;;643.75;;
16916;SDS011;8575;52.418;13.492;2022-11-20T01:01:45;692.92;;;634.45;;
16916;SDS011;8575;52.418;13.492;2022-11-20T01:02:07;702.40;;;643.85;;
16916;SDS011;8575;52.418;13.492;2022-11-20T01:02:28;710.28;;;651.45;;
16916;SDS011;8575;52.418;13.492;2022-11-20T01:02:49;705.78;;;647.08;;
16916;SDS011;8575;52.418;13.492;2022-11-20T01:03:11;702.90;;;644.25;;
16916;SDS011;8575;52.418;13.492;2022-11-20T01:03:32;728.05;;;668.72;;
16916;SDS011;8575;52.418;13.492;2022-11-20T01:03:56;730.25;;;670.70;;
16916;SDS011;8575;52.418;13.492;2022-11-20T01:04:18;696.75;;;638.15;;
16916;SDS011;8575;52.418;13.492;2022-11-20T01:04:39;690.83;;;632.30;;
16916;SDS011;8575;52.418;13.492;2022-11-20T01:05:00;695.92;;;637.13;;
16916;SDS011;8575;52.418;13.492;2022-11-20T01:05:23;728.33;;;668.80;;
16916;SDS011;8575;52.418;13.492;2022-11-20T01:05:44;718.85;;;659.58;;
16916;SDS011;8575;52.418;13.492;2022-11-20T01:06:06;709.17;;;650.28;;
16916;SDS011;8575;52.418;13.492;2022-11-20T01:06:30;709.95;;;651.10;;
16916;SDS011;8575;52.418;13.492;2022-11-20T01:06:53;705.30;;;646.58;;
16916;SDS011;8575;52.418;13.492;2022-11-20T01:07:14;708.88;;;650.10;;
16916;SDS011;8575;52.418;13.492;2022-11-20T01:07:36;705.75;;;647.20;;
16916;SDS011;8575;52.418;13.492;2022-11-20T01:07:57;719.92;;;660.97;;
16916;SDS011;8575;52.418;13.492;2022-11-20T01:08:18;722.55;;;663.35;;
16916;SDS011;8575;52.418;13.492;2022-11-20T01:08:41;713.40;;;654.55;;
16916;SDS011;8575;52.418;13.492;2022-11-20T01:09:03;719.83;;;660.78;;
16916;SDS011;8575;52.418;13.492;2022-11-20T01:09:26;714.10;;;655.20;;
16916;SDS011;8575;52.418;13.492;2022-11-20T01:09:47;706.03;;;647.35;;
16916;SDS011;8575;52.418;13.492;2022-11-20T01:10:11;711.72;;;652.75;;
16916;SDS011;8575;52.418;13.492;2022-11-20T01:10:32;711.17;;;652.42;;
16916;SDS011;8575;52.418;13.492;2022-11-20T01:10:53;702.78;;;644.05;;
16916;SDS011;8575;52.418;13.492;2022-11-20T01:11:22;719.58;;;660.67;;
16916;SDS011;8575;52.418;13.492;2022-11-20T01:11:45;706.38;;;647.78;;
16916;SDS011;8575;52.418;13.492;2022-11-20T01:12:06;700.60;;;642.03;;
16916;SDS011;8575;52.418;13.492;2022-11-20T01:12:27;685.15;;;626.97;;
16916;SDS011;8575;52.418;13.492;2022-11-20T01:12:48;694.97;;;636.65;;
16916;SDS011;8575;52.418;13.492;2022-11-20T01:13:30;701.85;;;643.42;;
16916;SDS011;8575;52.418;13.492;2022-11-20T01:13:58;707.83;;;649.03;;
16916;SDS011;8575;52.418;13.492;2022-11-20T01:14:21;686.03;;;627.92;;
16916;SDS011;8575;52.418;13.492;2022-11-20T01:14:42;684.60;;;626.45;;
16916;SDS011;8575;52.418;13.492;2022-11-20T01:15:04;702.25;;;643.53;;
16916;SDS011;8575;52.418;13.492;2022-11-20T01:15:26;690.63;;;632.38;;
16916;SDS011;8575;52.418;13.492;2022-11-20T01:15:47;694.50;;;636.08;;
16916;SDS011;8575;52.418;13.492;2022-11-20T01:16:10;695.22;;;636.70;;
16916;SDS011;8575;52.418;13.492;2022-11-20T01:16:33;715.72;;;656.80;;
16916;SDS011;8575;52.418;13.492;2022-11-20T01:16:55;711.25;;;652.42;;
16916;SDS011;8575;52.418;13.492;2022-11-20T01:17:17;711.65;;;652.95;;
16916;SDS011;8575;52.418;13.492;2022-11-20T01:17:38;727.83;;;668.72;;
16916;SDS011;8575;52.418;13.492;2022-11-20T01:17:59;717.53;;;658.60;;
16916;SDS011;8575;52.418;13.492;2022-11-20T01:18:21;704.75;;;646.22;;
16916;SDS011;8575;52.418;13.492;2022-11-20T01:18:42;697.70;;;639.30;;
16916;SDS011;8575;52.418;13.492;2022-11-20T01:19:06;713.55;;;654.78;;
16916;SDS011;8575;52.418;13.492;2022-11-20T01:19:30;705.20;;;646.65;;
16916;SDS011;8575;52.418;13.492;2022-11-20T01:19:51;704.45;;;645.90;;
16916;SDS011;8575;52.418;13.492;2022-11-20T01:20:12;728.08;;;668.90;;
16916;SDS011;8575;52.418;13.492;2022-11-20T01:20:35;745.17;;;685.45;;
16916;SDS011;8575;52.418;13.492;2022-11-20T01:20:59;732.38;;;673.05;;
16916;SDS011;8575;52.418;13.492;2022-11-20T01:21:22;723.17;;;664.08;;
16916;SDS011;8575;52.418;13.492;2022-11-20T01:21:47;711.45;;;652.63;;
16916;SDS011;8575;52.418;13.492;2022-11-20T01:22:09;708.10;;;649.22;;
16916;SDS011;8575;52.418;13.492;2022-11-20T01:22:31;713.75;;;654.85;;
16916;SDS011;8575;52.418;13.492;2022-11-20T01:22:52;686.22;;;628.03;;
16916;SDS011;8575;52.418;13.492;2022-11-20T01:23:13;685.90;;;627.63;;
16916;SDS011;8575;52.418;13.492;2022-11-20T01:23:36;676.05;;;618.08;;
16916;SDS011;8575;52.418;13.492;2022-11-20T01:23:59;682.97;;;624.95;;
16916;SDS011;8575;52.418;13.492;2022-11-20T01:24:21;667.25;;;609.45;;
16916;SDS011;8575;52.418;13.492;2022-11-20T01:24:42;667.13;;;609.22;;
16916;SDS011;8575;52.418;13.492;2022-11-20T01:25:05;652.58;;;594.85;;
16916;SDS011;8575;52.418;13.492;2022-11-20T01:25:28;662.45;;;604.60;;
16916;SDS011;8575;52.418;13.492;2022-11-20T01:25:49;680.40;;;622.33;;
16916;SDS011;8575;52.418;13.492;2022-11-20T01:26:11;685.35;;;627.25;;
16916;SDS011;8575;52.418;13.492;2022-11-20T01:26:35;670.90;;;612.97;;
16916;SDS011;8575;52.418;13.492;2022-11-20T01:26:58;695.60;;;637.05;;
16916;SDS011;8575;52.418;13.492;2022-11-20T01:27:19;684.22;;;626.10;;
16916;SDS011;8575;52.418;13.492;2022-11-20T01:27:40;670.85;;;612.97;;
16916;SDS011;8575;52.418;13.492;2022-11-20T01:28:02;691.25;;;632.80;;
16916;SDS011;8575;52.418;13.492;2022-11-20T01:28:24;705.13;;;646.30;;
16916;SDS011;8575;52.418;13.492;2022-11-20T01:28:45;690.90;;;632.42;;
16916;SDS011;8575;52.418;13.492;2022-11-20T01:29:08;679.50;;;621.53;;
16916;SDS011;8575;52.418;13.492;2022-11-20T01:29:30;686.00;;;628.03;;
16916;SDS011;8575;52.418;13.492;2022-11-20T01:29:52;665.33;;;607.55;;
16916;SDS011;8575;52.418;13.492;2022-11-20T01:30:14;666.53;;;608.60;;
16916;SDS011;8575;52.418;13.492;2022-11-20T01:30:35;677.35;;;619.10;;
16916;SDS011;8575;52.418;13.492;2022-11-20T01:30:56;680.05;;;621.92;;
16916;SDS011;8575;52.418;13.492;2022-11-20T01:31:18;687.53;;;629.25;;
16916;SDS011;8575;52.418;13.492;2022-11-20T01:31:40;680.35;;;622.28;;
16916;SDS011;8575;52.418;13.492;2022-11-20T01:32:03;683.95;;;625.75;;
16916;SDS011;8575;52.418;13.492;2022-11-20T01:32:24;687.95;;;629.75;;
16916;SDS011;8575;52.418;13.492;2022-11-20T01:32:46;679.88;;;621.58;;
16916;SDS011;8575;52.418;13.492;2022-11-20T01:33:07;684.15;;;625.85;;
16916;SDS011;8575;52.418;13.492;2022-11-20T01:33:28;705.28;;;646.28;;
16916;SDS011;8575;52.418;13.492;2022-11-20T01:33:51;701.88;;;643.17;;
16916;SDS011;8575;52.418;13.492;2022-11-20T01:34:14;680.88;;;622.97;;
16916;SDS011;8575;52.418;13.492;2022-11-20T01:34:36;675.40;;;617.58;;
16916;SDS011;8575;52.418;13.492;2022-11-20T01:34:58;679.72;;;621.60;;
16916;SDS011;8575;52.418;13.492;2022-11-20T01:35:19;673.35;;;615.00;;
16916;SDS011;8575;52.418;13.492;2022-11-20T01:35:41;698.90;;;640.35;;
16916;SDS011;8575;52.418;13.492;2022-11-20T01:36:02;686.53;;;628.25;;
16916;SDS011;8575;52.418;13.492;2022-11-20T01:36:26;682.40;;;624.40;;
16916;SDS011;8575;52.418;13.492;2022-11-20T01:36:50;676.72;;;618.75;;
16916;SDS011;8575;52.418;13.492;2022-11-20T01:37:11;682.45;;;624.45;;
16916;SDS011;8575;52.418;13.492;2022-11-20T01:37:33;676.42;;;618.45;;
16916;SDS011;8575;52.418;13.492;2022-11-20T01:37:55;680.00;;;621.92;;
16916;SDS011;8575;52.418;13.492;2022-11-20T01:38:16;679.88;;;621.88;;
16916;SDS011;8575;52.418;13.492;2022-11-20T01:38:37;689.17;;;630.88;;
16916;SDS011;8575;52.418;13.492;2022-11-20T01:39:00;680.70;;;622.65;;
16916;SDS011;8575;52.418;13.492;2022-11-20T01:39:24;658.38;;;600.85;;
16916;SDS011;8575;52.418;13.492;2022-11-20T01:39:46;676.80;;;619.00;;
16916;SDS011;8575;52.418;13.492;2022-11-20T01:40:08;664.45;;;606.88;;
16916;SDS011;8575;52.418;13.492;2022-11-20T01:40:31;664.92;;;607.28;;
16916;SDS011;8575;52.418;13.492;2022-11-20T01:40:54;682.65;;;624.45;;
16916;SDS011;8575;52.418;13.492;2022-11-20T01:41:16;674.28;;;616.38;;
16916;SDS011;8575;52.418;13.492;2022-11-20T01:41:55;677.78;;;619.80;;
16916;SDS011;8575;52.418;13.492;2022-11-20T01:42:35;690.70;;;632.50;;
16916;SDS011;8575;52.418;13.492;2022-11-20T01:43:27;662.45;;;604.85;;
16916;SDS011;8575;52.418;13.492;2022-11-20T01:43:49;674.33;;;616.10;;
16916;SDS011;8575;52.418;13.492;2022-11-20T01:44:10;688.58;;;629.68;;
16916;SDS011;8575;52.418;13.492;2022-11-20T01:44:53;694.25;;;635.08;;
16916;SDS011;8575;52.418;13.492;2022-11-20T01:46:15;692.03;;;633.53;;
16916;SDS011;8575;52.418;13.492;2022-11-20T01:46:37;688.35;;;630.20;;
16916;SDS011;8575;52.418;13.492;2022-11-20T01:47:00;685.08;;;626.92;;
16916;SDS011;8575;52.418;13.492;2022-11-20T01:47:25;680.08;;;621.92;;
16916;SDS011;8575;52.418;13.492;2022-11-20T01:47:49;677.53;;;619.50;;
16916;SDS011;8575;52.418;13.492;2022-11-20T01:48:11;693.33;;;634.92;;
16916;SDS011;8575;52.418;13.492;2022-11-20T01:48:34;719.88;;;660.90;;
16916;SDS011;8575;52.418;13.492;2022-11-20T01:48:59;698.33;;;639.58;;
16916;SDS011;8575;52.418;13.492;2022-11-20T01:49:24;691.78;;;633.33;;
16916;SDS011;8575;52.418;13.492;2022-11-20T01:49:48;689.40;;;631.10;;
16916;SDS011;8575;52.418;13.492;2022-11-20T01:50:13;694.95;;;636.63;;
16916;SDS011;8575;52.418;13.492;2022-11-20T01:50:37;709.03;;;650.35;;
16916;SDS011;8575;52.418;13.492;2022-11-20T01:50:58;687.85;;;629.65;;
16916;SDS011;8575;52.418;13.492;2022-11-20T01:51:21;688.20;;;629.88;;
16916;SDS011;8575;52.418;13.492;2022-11-20T01:51:47;683.28;;;625.05;;
16916;SDS011;8575;52.418;13.492;2022-11-20T01:52:14;703.95;;;645.25;;
16916;SDS011;8575;52.418;13.492;2022-11-20T01:52:38;685.67;;;627.42;;
16916;SDS011;8575;52.418;13.492;2022-11-20T01:53:02;694.35;;;635.92;;
16916;SDS011;8575;52.418;13.492;2022-11-20T01:53:27;693.25;;;634.85;;
16916;SDS011;8575;52.418;13.492;2022-11-20T01:53:51;694.95;;;636.45;;
16916;SDS011;8575;52.418;13.492;2022-11-20T01:54:16;719.75;;;660.78;;
16916;SDS011;8575;52.418;13.492;2022-11-20T01:54:40;693.05;;;634.60;;
16916;SDS011;8575;52.418;13.492;2022-11-20T01:55:04;688.10;;;629.72;;
16916;SDS011;8575;52.418;13.492;2022-11-20T01:55:27;668.17;;;610.53;;
16916;SDS011;8575;52.418;13.492;2022-11-20T01:55:55;711.40;;;652.63;;
16916;SDS011;8575;52.418;13.492;2022-11-20T01:56:18;684.40;;;626.25;;
16916;SDS011;8575;52.418;13.492;2022-11-20T01:56:40;670.13;;;611.95;;
16916;SDS011;8575;52.418;13.492;2022-11-20T01:57:04;674.35;;;616.38;;
16916;SDS011;8575;52.418;13.492;2022-11-20T01:57:27;687.33;;;629.08;;
16916;SDS011;8575;52.418;13.492;2022-11-20T01:57:50;667.10;;;609.30;;
16916;SDS011;8575;52.418;13.492;2022-11-20T01:58:12;670.42;;;612.58;;
16916;SDS011;8575;52.418;13.492;2022-11-20T01:58:35;679.88;;;621.80;;
16916;SDS011;8575;52.418;13.492;2022-11-20T01:58:58;680.70;;;622.67;;
16916;SDS011;8575;52.418;13.492;2022-11-20T01:59:22;676.45;;;618.50;;
16916;SDS011;8575;52.418;13.492;2022-11-20T01:59:47;684.03;;;625.72;;
16916;SDS011;8575;52.418;13.492;2022-11-20T02:00:14;699.30;;;640.67;;
16916;SDS011;8575;52.418;13.492;2022-11-20T02:00:38;677.20;;;619.17;;
16916;SDS011;8575;52.418;13.492;2022-11-20T02:01:00;673.60;;;615.80;;
16916;SDS011;8575;52.418;13.492;2022-11-20T02:01:21;674.10;;;616.30;;
16916;SDS011;8575;52.418;13.492;2022-11-20T02:01:43;680.80;;;622.70;;
16916;SDS011;8575;52.418;13.492;2022-11-20T02:02:04;665.65;;;607.92;;
16916;SDS011;8575;52.418;13.492;2022-11-20T02:02:26;673.92;;;615.88;;
16916;SDS011;8575;52.418;13.492;2022-11-20T02:02:49;668.40;;;610.58;;
16916;SDS011;8575;52.418;13.492;2022-11-20T02:03:13;684.30;;;625.72;;
16916;SDS011;8575;52.418;13.492;2022-11-20T02:03:37;678.67;;;620.08;;
16916;SDS011;8575;52.418;13.492;2022-11-20T02:03:59;707.53;;;648.78;;
16916;SDS011;8575;52.418;13.492;2022-11-20T02:04:20;705.40;;;646.80;;
16916;SDS011;8575;52.418;13.492;2022-11-20T02:04:43;708.53;;;649.90;;
16916;SDS011;8575;52.418;13.492;2022-11-20T02:05:08;703.78;;;644.97;;
16916;SDS011;8575;52.418;13.492;2022-11-20T02:05:35;686.10;;;627.90;;
16916;SDS011;8575;52.418;13.492;2022-11-20T02:06:01;704.78;;;646.17;;
16916;SDS011;8575;52.418;13.492;2022-11-20T02:06:26;703.42;;;644.88;;
16916;SDS011;8575;52.418;13.492;2022-11-20T02:06:50;695.72;;;637.13;;
16916;SDS011;8575;52.418;13.492;2022-11-20T02:07:15;703.38;;;644.67;;
16916;SDS011;8575;52.418;13.492;2022-11-20T02:07:37;696.13;;;637.70;;
16916;SDS011;8575;52.418;13.492;2022-11-20T02:07:59;680.35;;;622.25;;
16916;SDS011;8575;52.418;13.492;2022-11-20T02:08:20;711.97;;;653.03;;
16916;SDS011;8575;52.418;13.492;2022-11-20T02:08:42;703.25;;;644.45;;
16916;SDS011;8575;52.418;13.492;2022-11-20T02:09:05;709.58;;;650.65;;
16916;SDS011;8575;52.418;13.492;2022-11-20T02:09:26;720.30;;;661.25;;
16916;SDS011;8575;52.418;13.492;2022-11-20T02:09:47;714.67;;;655.75;;